Hima, Kentucky
Current Conditions -  °F | °C
As of 6:53 AM on Friday 21 Nov 2014 (Local Time) from KLOZ Reporting Station
Clear Clear  
Wind Chill: 20°   Ceiling: Unl
Heat Index: 20°   Visibility: 9mi
Dew Point: 15°   Wind: 0mph
Humidity: 81%   Direction: NA
Pressure: 30.42"   Gusts: NA
Location:  37.12°N, 83.78°W
Report Text: KLOZ 211153Z AUTO 00000KT 9SM CLR M07/M09 A3042 RMK AO2 SLP314 I1000 I6000 T10671094 11028 21067 52018
Loading
Personal Weather Stations






























Interactive Weather Map New forecast layout! Learn more

10-Day Weather Forecast

Advertisements
Track Severe Weather on mobile